Řízení letového provozu České republiky  
Aktualizace dat:  01.11.2014 06:37:28 UTC English version
   METEO Zobrazení stránky:  01.11.2014 06:38:06 UTC  
vysvětlivky
METAR EDDB 010620Z 18003KT 1800 R25R/1100VP2000U R07R/0800N BCFG MIFG BR NSC 10/10 Q1022 TEMPO 0500 FG=
METAR EDDC 010620Z 17008KT 4500 BR NSC 09/08 Q1022 TEMPO 5000=
METAR EDDE 010620Z 21007KT 9999 BCFG NSC 07/06 Q1022 NOSIG=
METAR EDDF 010620Z 19003KT 150V230 0200 R25R/P2000N R25C/0900VP2000U R25L/0500N R18/0750N FG VV/// 08/08 Q1023 NOSIG=
METAR EDDM 010620Z 08003KT 040V100 0400 R08L/0325N R08R/0350N FG VV/// 05/05 Q1025 NOSIG=
METAR EDDN 010620Z 11003KT 7000 MIFG NSC 07/07 Q1024 TEMPO 4000 BR=
METAR EDDP 010620Z 20008KT CAVOK 10/09 Q1022 NOSIG=
METAR EDDT 010620Z 20002KT 9000 BCFG MIFG NSC 10/09 Q1021 TEMPO 1200 BCFG=
METAR EDQM 311850Z 20004KT 4000 BR NSC 09/07 Q1026=
METAR EPBY 010630Z 13003KT 2400 BR OVC015 06/06 Q1023 =
METAR EPGD 010630Z 16003KT 120V200 1100 R29/1800 -DZ BR VV003 05/05 Q1022 =
METAR EPKK 010630Z 06002KT 1400 R25/1000 BR NSC 01/01 Q1025 =
METAR EPKT 010630Z 13003KT 1600 BR NSC 04/03 Q1024 =
METAR EPLL 010630Z 08004KT 3500 BR NSC 04/03 Q1024 =
METAR EPPO 010630Z 13004KT 3500 BR OVC018 08/06 Q1022 =
METAR EPRZ 010630Z 13002KT 1500 R27/1200 BR NSC 01/01 Q1026 =
METAR EPWA 010630Z 15004KT 4500 BR BKN020 03/02 Q1025 TEMPO BKN015=
METAR EPWR 010630Z 11004KT 070V130 3000 BR NSC 07/05 Q1023 =
METAR LHBP 010630Z VRB02KT 0100 R31L/0275N R31R/0300N FG OVC002 M00/M01 Q1027 NOSIG=
METAR LHSM 010615Z 00000KT 0100 FG FEW033 BKN200 03/03 Q1027=
METAR LKCV 010600Z 14004KT 8000 NSC 09/09 Q1024 NOSIG=
METAR LKKB 010600Z VRB02KT 5000 BR NSC 07/07 Q1024 NOSIG=
METAR LKKU 010604Z 03001KT 5000 BR OVC018 06/05 Q1026 RMK REG QNH 1020=
METAR LKKV 010630Z 29003KT 0300 R29/0450N FG VV002 07/07 Q1024=
METAR LKLN 010600Z AUTO 00000KT //// HZ NSC 06/// Q1025=
METAR LKMT 010630Z 22009KT 5000 BR BKN010 06/06 Q1025 NOSIG=
METAR LKNA 010600Z 00000KT 3000 1000SE MIFG BR NSC 07/07 Q1025 NOSIG=
METAR LKPD 010600Z 00000KT 1500 BR NSC 07/06 Q1025 NOSIG=
METAR LKPR 010630Z 20004KT 4000 2000NW BR NSC 08/07 Q1024 NOSIG=
METAR LKTB 010630Z 00000KT 3800 BR OVC018 08/06 Q1026 NOSIG=
METAR LKVO NIL
METAR LOWI 010620Z VRB01KT 9999 MIFG SCT300 01/01 Q1027 NOSIG=
METAR LOWL 010620Z VRB01KT 0350 R26/0900U FG VV001 06/06 Q1026 TEMPO 0200=
METAR LOWS 010620Z 16011KT CAVOK 09/05 Q1025 NOSIG=
METAR LOWW 010620Z 17006KT 2000 BR SCT250 04/04 Q1026 TEMPO 1200 BCFG=
METAR LZIB 010630Z 06003KT 0450 R31/0325N R22/0550N FG OVC001 03/02 Q1027 NOSIG=
METAR LZKZ 010630Z 29002KT 7000 3000S FEW011 M01/M01 Q1026 NOSIG=
METAR LZPP 010630Z VRB02KT 0200 R01/0300N FG OVC001 02/02 Q1027=
METAR LZSL 010630Z VRB01KT 0400 R36/0700N FZFG OVC001 M00/M00 Q1027=
METAR LZTT 010630Z VRB01KT 9999 4500E BCFG FEW002 BKN100 M02/M02 Q1025 NOSIG=
METAR LZZI 010630Z 13003KT 110V170 2800 BR OVC004 02/01 Q1026=